El Paso, TX

12:48 PM MST en Diciembre 22, 2014 (GMT -0700)
NonFedAWOS DONAANA NM US SUPERAWOS | Change Station
CLOSE
Current Station
Estación meteorológica personal
Location: Santa Teresa, NM
Altura: 4111 ft
Estaciones meteorológicas cercanas

Alt 4111 ft 31.88 °N, 106.70 °W | Updated 33 minutes ago

Despejado
Despejado
61 ° F
Sensación térmica 61 ° F
N
6
Viento Variable Viento desde SO
Gusts 0.0 mph

Hoy
Alta -- | Baja -- ° F
--% Posibilidad de precipitaciones
Ayer
Alta -- | Baja -- ° F
Precip. -- pul
7:03 AM 5:06 PM
Luna nueva, 1% visible
Presión 29.72 pul
Visibilidad 10.0 Millas
Nubes Baja 20000 ft
Baja 23000 ft
Punto de rocío 30 ° F
Humedad 31%
Precipitaciones -999.00 pul
Espesor de la nieve No disponible.
UV 4 de una escala de 12
Polen 9.00 de una escala de 12
Calidad del aire No disponible.
Flu Activity No disponible.
METAR KELP 221851Z 24010KT 10SM FEW200 FEW230 17/01 A2985 RMK AO2 PRESFR SLP063 T01670006

More Conditions Fewer Conditions

Presión 29.72 pul
Visibilidad 10.0 Millas
Nubes Baja 20000 ft
Baja 23000 ft
Punto de rocío 30 ° F
Humedad 31%
Precipitaciones -999.00 pul
Espesor de la nieve No disponible.
UV 4 de una escala de 12
Polen 9.00 de una escala de 12
Calidad del aire No disponible.
Flu Activity No disponible.
METAR KELP 221851Z 24010KT 10SM FEW200 FEW230 17/01 A2985 RMK AO2 PRESFR SLP063 T01670006

More Conditions Fewer Conditions

10-Day Weather Forecast

Almanac

Astronomía

Dec. 22, 2014 Salida Puesta
Hora real
Crepúsculo civil
Crepúsculo náutico
Crepúsculo astronómico
Luna
Horas de luz
Horas de luz
Tomorrow will be .
, % of the Moon is Illuminated

Extremos de hoy

Máximos del estado Bajos del estado

Community

WunderPhotos

Upload Photos

1,779,699 ¡fotos cargadas!

WunderBlogs® & News

Nearby

Calidad del aire

  Calidad del aire Índice AQ Contaminante
Not available.

Grosos de nieve

Estación Profundido Altura

Actividad de terremotos

Ciudad Distance Mag. Tiempo y dato
Magnitud mínima muestra es 2,5.

Temperaturas de aguas costeras

Lugar Temperatura

Estaciones meteorológicas cercanas